sensor_id;sensor_type;location;lat;lon;timestamp;temperature;humidity
35563;DHT22;21665;40.108;18.302;2022-07-21T00:01:24;24.00;99.90
35563;DHT22;21665;40.108;18.302;2022-07-21T00:03:52;24.00;99.90
35563;DHT22;21665;40.108;18.302;2022-07-21T00:06:20;24.00;99.90
35563;DHT22;21665;40.108;18.302;2022-07-21T00:08:48;24.00;99.90
35563;DHT22;21665;40.108;18.302;2022-07-21T00:11:16;24.00;99.90
35563;DHT22;21665;40.108;18.302;2022-07-21T00:14:03;24.00;99.90
35563;DHT22;21665;40.108;18.302;2022-07-21T00:16:33;24.00;99.90
35563;DHT22;21665;40.108;18.302;2022-07-21T00:19:00;24.00;99.90
35563;DHT22;21665;40.108;18.302;2022-07-21T00:21:28;24.00;99.90
35563;DHT22;21665;40.108;18.302;2022-07-21T00:23:55;24.00;99.90
35563;DHT22;21665;40.108;18.302;2022-07-21T00:26:25;23.90;99.90
35563;DHT22;21665;40.108;18.302;2022-07-21T00:28:52;23.90;99.90
35563;DHT22;21665;40.108;18.302;2022-07-21T00:31:19;23.90;99.90
35563;DHT22;21665;40.108;18.302;2022-07-21T00:33:46;23.90;99.90
35563;DHT22;21665;40.108;18.302;2022-07-21T00:36:19;23.90;99.90
35563;DHT22;21665;40.108;18.302;2022-07-21T00:38:48;23.90;99.90
35563;DHT22;21665;40.108;18.302;2022-07-21T00:41:18;23.90;99.90
35563;DHT22;21665;40.108;18.302;2022-07-21T00:43:45;23.90;99.90
35563;DHT22;21665;40.108;18.302;2022-07-21T00:46:12;23.80;99.90
35563;DHT22;21665;40.108;18.302;2022-07-21T00:48:40;23.70;99.90
35563;DHT22;21665;40.108;18.302;2022-07-21T00:51:07;23.70;99.90
35563;DHT22;21665;40.108;18.302;2022-07-21T00:53:34;23.60;99.90
35563;DHT22;21665;40.108;18.302;2022-07-21T00:56:08;23.60;99.90
35563;DHT22;21665;40.108;18.302;2022-07-21T00:58:35;23.60;99.90
35563;DHT22;21665;40.108;18.302;2022-07-21T01:01:02;23.60;99.90
35563;DHT22;21665;40.108;18.302;2022-07-21T01:03:33;23.60;99.90
35563;DHT22;21665;40.108;18.302;2022-07-21T01:06:01;23.60;99.90
35563;DHT22;21665;40.108;18.302;2022-07-21T01:08:31;23.60;99.90
35563;DHT22;21665;40.108;18.302;2022-07-21T01:10:59;23.60;99.90
35563;DHT22;21665;40.108;18.302;2022-07-21T01:13:29;23.60;99.90
35563;DHT22;21665;40.108;18.302;2022-07-21T01:15:57;23.50;99.90
35563;DHT22;21665;40.108;18.302;2022-07-21T01:18:28;23.50;99.90
35563;DHT22;21665;40.108;18.302;2022-07-21T01:20:58;23.40;99.90
35563;DHT22;21665;40.108;18.302;2022-07-21T01:23:30;23.40;99.90
35563;DHT22;21665;40.108;18.302;2022-07-21T01:25:59;23.30;99.90
35563;DHT22;21665;40.108;18.302;2022-07-21T01:28:26;23.20;99.90
35563;DHT22;21665;40.108;18.302;2022-07-21T01:30:53;23.20;99.90
35563;DHT22;21665;40.108;18.302;2022-07-21T01:33:20;23.10;99.90
35563;DHT22;21665;40.108;18.302;2022-07-21T01:35:46;23.10;99.90
35563;DHT22;21665;40.108;18.302;2022-07-21T01:38:13;23.10;99.90
35563;DHT22;21665;40.108;18.302;2022-07-21T01:40:59;23.00;99.90
35563;DHT22;21665;40.108;18.302;2022-07-21T01:43:45;23.10;99.90
35563;DHT22;21665;40.108;18.302;2022-07-21T01:46:15;23.00;99.90
35563;DHT22;21665;40.108;18.302;2022-07-21T01:48:48;23.10;99.90
35563;DHT22;21665;40.108;18.302;2022-07-21T01:51:16;23.10;99.90
35563;DHT22;21665;40.108;18.302;2022-07-21T01:53:44;23.00;99.90
35563;DHT22;21665;40.108;18.302;2022-07-21T01:56:11;23.00;99.90
35563;DHT22;21665;40.108;18.302;2022-07-21T01:58:38;23.00;99.90
35563;DHT22;21665;40.108;18.302;2022-07-21T02:01:06;23.00;99.90
35563;DHT22;21665;40.108;18.302;2022-07-21T02:03:33;22.90;99.90
35563;DHT22;21665;40.108;18.302;2022-07-21T02:06:05;22.90;99.90
35563;DHT22;21665;40.108;18.302;2022-07-21T02:08:35;22.80;99.90
35563;DHT22;21665;40.108;18.302;2022-07-21T02:11:03;22.80;99.90
35563;DHT22;21665;40.108;18.302;2022-07-21T02:13:30;22.80;99.90
35563;DHT22;21665;40.108;18.302;2022-07-21T02:15:57;22.80;99.90
35563;DHT22;21665;40.108;18.302;2022-07-21T02:18:25;22.80;99.90
35563;DHT22;21665;40.108;18.302;2022-07-21T02:20:51;22.70;99.90
35563;DHT22;21665;40.108;18.302;2022-07-21T02:23:18;22.80;99.90
35563;DHT22;21665;40.108;18.302;2022-07-21T02:25:50;22.80;99.90
35563;DHT22;21665;40.108;18.302;2022-07-21T02:28:27;22.80;99.90
35563;DHT22;21665;40.108;18.302;2022-07-21T02:30:54;22.80;99.90
35563;DHT22;21665;40.108;18.302;2022-07-21T02:33:21;22.80;99.90
35563;DHT22;21665;40.108;18.302;2022-07-21T02:35:48;22.80;99.90
35563;DHT22;21665;40.108;18.302;2022-07-21T02:38:22;22.80;99.90
35563;DHT22;21665;40.108;18.302;2022-07-21T02:40:50;22.90;99.90
35563;DHT22;21665;40.108;18.302;2022-07-21T02:43:18;22.90;99.90
35563;DHT22;21665;40.108;18.302;2022-07-21T02:45:46;22.90;99.90
35563;DHT22;21665;40.108;18.302;2022-07-21T02:48:13;22.80;99.90
35563;DHT22;21665;40.108;18.302;2022-07-21T02:50:43;22.80;99.90
35563;DHT22;21665;40.108;18.302;2022-07-21T02:53:13;22.80;99.90
35563;DHT22;21665;40.108;18.302;2022-07-21T02:55:45;22.80;99.90
35563;DHT22;21665;40.108;18.302;2022-07-21T02:58:16;22.80;99.90
35563;DHT22;21665;40.108;18.302;2022-07-21T03:03:16;22.80;99.90
35563;DHT22;21665;40.108;18.302;2022-07-21T03:05:45;22.80;99.90
35563;DHT22;21665;40.108;18.302;2022-07-21T03:08:16;22.80;99.90
35563;DHT22;21665;40.108;18.302;2022-07-21T03:10:44;22.80;99.90
35563;DHT22;21665;40.108;18.302;2022-07-21T03:13:11;22.80;99.90
35563;DHT22;21665;40.108;18.302;2022-07-21T03:15:38;22.80;99.90
35563;DHT22;21665;40.108;18.302;2022-07-21T03:18:06;22.80;99.90
35563;DHT22;21665;40.108;18.302;2022-07-21T03:20:37;22.80;99.90
35563;DHT22;21665;40.108;18.302;2022-07-21T03:23:04;22.70;99.90
35563;DHT22;21665;40.108;18.302;2022-07-21T03:25:34;22.70;99.90
35563;DHT22;21665;40.108;18.302;2022-07-21T03:28:02;22.70;99.90
35563;DHT22;21665;40.108;18.302;2022-07-21T03:30:29;22.60;99.90
35563;DHT22;21665;40.108;18.302;2022-07-21T03:32:56;22.60;99.90
35563;DHT22;21665;40.108;18.302;2022-07-21T03:35:27;22.60;99.90
35563;DHT22;21665;40.108;18.302;2022-07-21T03:37:57;22.70;99.90
35563;DHT22;21665;40.108;18.302;2022-07-21T03:40:27;22.70;99.90
35563;DHT22;21665;40.108;18.302;2022-07-21T03:42:57;22.70;99.90
35563;DHT22;21665;40.108;18.302;2022-07-21T03:45:26;22.70;99.90
35563;DHT22;21665;40.108;18.302;2022-07-21T03:47:58;22.70;99.90
35563;DHT22;21665;40.108;18.302;2022-07-21T03:50:26;22.80;99.90
35563;DHT22;21665;40.108;18.302;2022-07-21T03:52:54;22.80;99.90
35563;DHT22;21665;40.108;18.302;2022-07-21T03:55:21;22.80;99.90
35563;DHT22;21665;40.108;18.302;2022-07-21T03:57:57;22.90;99.90
35563;DHT22;21665;40.108;18.302;2022-07-21T04:00:36;22.80;99.90
35563;DHT22;21665;40.108;18.302;2022-07-21T04:03:04;22.80;99.90
35563;DHT22;21665;40.108;18.302;2022-07-21T04:05:33;22.80;99.90
35563;DHT22;21665;40.108;18.302;2022-07-21T04:08:01;22.80;99.90
35563;DHT22;21665;40.108;18.302;2022-07-21T04:10:32;22.90;99.90
35563;DHT22;21665;40.108;18.302;2022-07-21T04:13:01;22.90;99.90
35563;DHT22;21665;40.108;18.302;2022-07-21T04:15:29;23.00;99.90
35563;DHT22;21665;40.108;18.302;2022-07-21T04:17:56;23.00;99.90
35563;DHT22;21665;40.108;18.302;2022-07-21T04:20:23;23.10;99.90
35563;DHT22;21665;40.108;18.302;2022-07-21T04:22:59;23.10;99.90
35563;DHT22;21665;40.108;18.302;2022-07-21T04:25:25;23.20;99.90
35563;DHT22;21665;40.108;18.302;2022-07-21T04:27:52;23.30;99.90
35563;DHT22;21665;40.108;18.302;2022-07-21T04:30:21;23.40;99.90
35563;DHT22;21665;40.108;18.302;2022-07-21T04:32:51;23.50;99.90
35563;DHT22;21665;40.108;18.302;2022-07-21T04:35:19;23.70;99.90
35563;DHT22;21665;40.108;18.302;2022-07-21T04:37:46;23.80;99.90
35563;DHT22;21665;40.108;18.302;2022-07-21T04:40:14;23.90;99.90
35563;DHT22;21665;40.108;18.302;2022-07-21T04:42:41;24.20;99.90
35563;DHT22;21665;40.108;18.302;2022-07-21T04:45:10;24.50;99.90
35563;DHT22;21665;40.108;18.302;2022-07-21T04:47:54;24.80;99.90
35563;DHT22;21665;40.108;18.302;2022-07-21T04:50:27;25.60;99.90
35563;DHT22;21665;40.108;18.302;2022-07-21T04:52:55;26.90;99.90
35563;DHT22;21665;40.108;18.302;2022-07-21T04:55:22;28.30;99.90
35563;DHT22;21665;40.108;18.302;2022-07-21T04:57:50;28.90;99.90
35563;DHT22;21665;40.108;18.302;2022-07-21T05:00:20;29.70;99.90
35563;DHT22;21665;40.108;18.302;2022-07-21T05:02:49;30.10;99.90
35563;DHT22;21665;40.108;18.302;2022-07-21T05:05:16;29.90;99.90
35563;DHT22;21665;40.108;18.302;2022-07-21T05:07:43;30.40;99.90
35563;DHT22;21665;40.108;18.302;2022-07-21T05:10:14;30.70;99.90
35563;DHT22;21665;40.108;18.302;2022-07-21T05:12:41;31.20;99.90
35563;DHT22;21665;40.108;18.302;2022-07-21T05:15:11;31.20;99.90
35563;DHT22;21665;40.108;18.302;2022-07-21T05:17:40;31.60;99.90
35563;DHT22;21665;40.108;18.302;2022-07-21T05:20:08;31.70;99.90
35563;DHT22;21665;40.108;18.302;2022-07-21T05:22:35;32.30;99.90
35563;DHT22;21665;40.108;18.302;2022-07-21T05:25:02;32.50;99.90
35563;DHT22;21665;40.108;18.302;2022-07-21T05:27:29;32.50;99.90
35563;DHT22;21665;40.108;18.302;2022-07-21T05:29:55;32.70;99.90
35563;DHT22;21665;40.108;18.302;2022-07-21T05:32:22;33.20;99.90
35563;DHT22;21665;40.108;18.302;2022-07-21T05:34:48;33.10;99.90
35563;DHT22;21665;40.108;18.302;2022-07-21T05:37:18;33.50;99.90
35563;DHT22;21665;40.108;18.302;2022-07-21T05:39:44;33.30;99.90
35563;DHT22;21665;40.108;18.302;2022-07-21T05:42:11;33.00;99.90
35563;DHT22;21665;40.108;18.302;2022-07-21T05:44:38;32.90;99.90
35563;DHT22;21665;40.108;18.302;2022-07-21T05:47:05;33.60;99.90
35563;DHT22;21665;40.108;18.302;2022-07-21T05:49:32;33.20;99.90
35563;DHT22;21665;40.108;18.302;2022-07-21T05:51:58;33.10;99.90
35563;DHT22;21665;40.108;18.302;2022-07-21T05:54:24;33.50;99.90
35563;DHT22;21665;40.108;18.302;2022-07-21T05:56:51;33.80;99.90
35563;DHT22;21665;40.108;18.302;2022-07-21T05:59:18;33.30;99.90
35563;DHT22;21665;40.108;18.302;2022-07-21T06:01:44;33.20;99.90
35563;DHT22;21665;40.108;18.302;2022-07-21T06:04:11;33.50;99.90
35563;DHT22;21665;40.108;18.302;2022-07-21T06:06:37;33.40;99.90
35563;DHT22;21665;40.108;18.302;2022-07-21T06:09:07;33.60;99.90
35563;DHT22;21665;40.108;18.302;2022-07-21T06:11:36;34.10;99.90
35563;DHT22;21665;40.108;18.302;2022-07-21T06:14:04;34.50;99.90
35563;DHT22;21665;40.108;18.302;2022-07-21T06:16:31;34.60;99.90
35563;DHT22;21665;40.108;18.302;2022-07-21T06:18:57;34.50;99.90
35563;DHT22;21665;40.108;18.302;2022-07-21T06:21:24;34.20;99.90
35563;DHT22;21665;40.108;18.302;2022-07-21T06:23:50;34.30;99.90
35563;DHT22;21665;40.108;18.302;2022-07-21T06:26:17;34.90;99.90
35563;DHT22;21665;40.108;18.302;2022-07-21T06:28:43;35.10;99.90
35563;DHT22;21665;40.108;18.302;2022-07-21T06:31:10;35.10;99.90
35563;DHT22;21665;40.108;18.302;2022-07-21T06:33:36;35.00;99.90
35563;DHT22;21665;40.108;18.302;2022-07-21T06:36:03;35.10;99.90
35563;DHT22;21665;40.108;18.302;2022-07-21T06:38:29;35.00;99.90
35563;DHT22;21665;40.108;18.302;2022-07-21T06:40:55;35.30;99.90
35563;DHT22;21665;40.108;18.302;2022-07-21T06:43:22;35.80;99.90
35563;DHT22;21665;40.108;18.302;2022-07-21T06:45:48;35.50;99.90
35563;DHT22;21665;40.108;18.302;2022-07-21T06:48:17;35.10;99.90
35563;DHT22;21665;40.108;18.302;2022-07-21T06:50:43;35.50;99.90
35563;DHT22;21665;40.108;18.302;2022-07-21T06:53:09;35.80;99.90
35563;DHT22;21665;40.108;18.302;2022-07-21T06:55:36;35.70;99.90
35563;DHT22;21665;40.108;18.302;2022-07-21T06:58:17;34.70;99.90
35563;DHT22;21665;40.108;18.302;2022-07-21T07:00:46;34.40;99.90
35563;DHT22;21665;40.108;18.302;2022-07-21T07:03:16;35.00;99.90
35563;DHT22;21665;40.108;18.302;2022-07-21T07:05:45;34.70;99.90
35563;DHT22;21665;40.108;18.302;2022-07-21T07:08:29;34.60;99.90
35563;DHT22;21665;40.108;18.302;2022-07-21T07:11:08;34.40;99.90
35563;DHT22;21665;40.108;18.302;2022-07-21T07:14:04;34.90;99.90
35563;DHT22;21665;40.108;18.302;2022-07-21T07:16:41;35.30;99.90
35563;DHT22;21665;40.108;18.302;2022-07-21T07:19:21;35.40;99.90
35563;DHT22;21665;40.108;18.302;2022-07-21T07:22:08;35.70;99.90
35563;DHT22;21665;40.108;18.302;2022-07-21T07:24:43;35.80;99.90
35563;DHT22;21665;40.108;18.302;2022-07-21T07:27:12;35.30;99.90
35563;DHT22;21665;40.108;18.302;2022-07-21T07:29:43;35.30;99.90
35563;DHT22;21665;40.108;18.302;2022-07-21T07:32:21;35.40;99.90
35563;DHT22;21665;40.108;18.302;2022-07-21T07:35:04;35.50;99.90
35563;DHT22;21665;40.108;18.302;2022-07-21T07:37:49;35.40;99.90
35563;DHT22;21665;40.108;18.302;2022-07-21T07:40:32;35.60;99.90
35563;DHT22;21665;40.108;18.302;2022-07-21T07:42:59;35.30;99.90
35563;DHT22;21665;40.108;18.302;2022-07-21T07:45:27;35.10;99.90
35563;DHT22;21665;40.108;18.302;2022-07-21T07:47:54;35.00;99.90
35563;DHT22;21665;40.108;18.302;2022-07-21T07:50:21;35.30;99.90
35563;DHT22;21665;40.108;18.302;2022-07-21T07:52:49;35.70;99.90
35563;DHT22;21665;40.108;18.302;2022-07-21T07:55:26;35.70;99.90
35563;DHT22;21665;40.108;18.302;2022-07-21T07:57:54;35.50;99.90
35563;DHT22;21665;40.108;18.302;2022-07-21T08:00:31;35.60;99.90
35563;DHT22;21665;40.108;18.302;2022-07-21T08:02:59;35.60;99.70
35563;DHT22;21665;40.108;18.302;2022-07-21T08:05:25;35.60;99.80
35563;DHT22;21665;40.108;18.302;2022-07-21T08:08:15;35.70;99.70
35563;DHT22;21665;40.108;18.302;2022-07-21T08:13:41;35.60;99.20
35563;DHT22;21665;40.108;18.302;2022-07-21T08:16:11;35.50;99.60
35563;DHT22;21665;40.108;18.302;2022-07-21T08:18:50;35.40;99.50
35563;DHT22;21665;40.108;18.302;2022-07-21T08:21:36;35.90;98.90
35563;DHT22;21665;40.108;18.302;2022-07-21T08:24:03;35.50;99.40
35563;DHT22;21665;40.108;18.302;2022-07-21T08:26:32;35.10;99.50
35563;DHT22;21665;40.108;18.302;2022-07-21T08:29:02;35.50;99.40
35563;DHT22;21665;40.108;18.302;2022-07-21T08:31:30;35.40;98.60
35563;DHT22;21665;40.108;18.302;2022-07-21T08:34:00;35.30;98.30
35563;DHT22;21665;40.108;18.302;2022-07-21T08:36:27;35.30;99.20
35563;DHT22;21665;40.108;18.302;2022-07-21T08:38:57;35.40;99.90
35563;DHT22;21665;40.108;18.302;2022-07-21T08:41:27;35.50;99.90
35563;DHT22;21665;40.108;18.302;2022-07-21T08:43:56;35.20;99.90
35563;DHT22;21665;40.108;18.302;2022-07-21T08:49:48;35.30;99.90
35563;DHT22;21665;40.108;18.302;2022-07-21T08:52:33;35.40;99.90
35563;DHT22;21665;40.108;18.302;2022-07-21T08:55:05;35.30;99.90
35563;DHT22;21665;40.108;18.302;2022-07-21T08:57:37;34.90;99.90
35563;DHT22;21665;40.108;18.302;2022-07-21T09:03:23;35.40;99.90
35563;DHT22;21665;40.108;18.302;2022-07-21T09:06:10;35.40;99.90
35563;DHT22;21665;40.108;18.302;2022-07-21T09:08:48;35.50;99.90
35563;DHT22;21665;40.108;18.302;2022-07-21T09:14:33;35.10;99.90
35563;DHT22;21665;40.108;18.302;2022-07-21T09:17:38;35.20;99.90
35563;DHT22;21665;40.108;18.302;2022-07-21T09:20:24;35.50;99.90
35563;DHT22;21665;40.108;18.302;2022-07-21T09:23:18;35.40;99.90
35563;DHT22;21665;40.108;18.302;2022-07-21T09:25:51;35.30;99.90
35563;DHT22;21665;40.108;18.302;2022-07-21T09:28:29;35.00;99.90
35563;DHT22;21665;40.108;18.302;2022-07-21T09:31:01;34.60;99.90
35563;DHT22;21665;40.108;18.302;2022-07-21T09:33:36;34.50;99.90
35563;DHT22;21665;40.108;18.302;2022-07-21T09:36:18;34.70;99.90
35563;DHT22;21665;40.108;18.302;2022-07-21T09:38:58;34.70;99.90
35563;DHT22;21665;40.108;18.302;2022-07-21T09:41:30;34.20;99.90
35563;DHT22;21665;40.108;18.302;2022-07-21T09:43:59;34.40;99.90
35563;DHT22;21665;40.108;18.302;2022-07-21T09:58:14;34.10;99.90
35563;DHT22;21665;40.108;18.302;2022-07-21T10:08:44;34.30;99.80
35563;DHT22;21665;40.108;18.302;2022-07-21T10:11:29;34.20;99.90
35563;DHT22;21665;40.108;18.302;2022-07-21T10:14:42;34.00;99.90
35563;DHT22;21665;40.108;18.302;2022-07-21T10:17:35;33.90;99.90
35563;DHT22;21665;40.108;18.302;2022-07-21T10:20:29;33.90;99.60
35563;DHT22;21665;40.108;18.302;2022-07-21T10:23:14;33.90;99.20
35563;DHT22;21665;40.108;18.302;2022-07-21T10:26:31;34.00;99.20
35563;DHT22;21665;40.108;18.302;2022-07-21T10:28:58;34.00;99.90
35563;DHT22;21665;40.108;18.302;2022-07-21T10:31:26;33.90;99.90
35563;DHT22;21665;40.108;18.302;2022-07-21T10:34:00;34.00;98.80
35563;DHT22;21665;40.108;18.302;2022-07-21T10:41:39;34.20;98.50
35563;DHT22;21665;40.108;18.302;2022-07-21T10:47:25;34.60;97.00
35563;DHT22;21665;40.108;18.302;2022-07-21T10:50:07;34.90;96.20
35563;DHT22;21665;40.108;18.302;2022-07-21T10:55:17;34.70;95.60
35563;DHT22;21665;40.108;18.302;2022-07-21T11:00:52;34.50;93.90
35563;DHT22;21665;40.108;18.302;2022-07-21T11:03:29;34.40;94.60
35563;DHT22;21665;40.108;18.302;2022-07-21T11:08:37;34.50;94.00
35563;DHT22;21665;40.108;18.302;2022-07-21T11:11:09;34.70;93.50
35563;DHT22;21665;40.108;18.302;2022-07-21T11:19:28;34.70;93.30
35563;DHT22;21665;40.108;18.302;2022-07-21T11:21:57;34.60;93.60
35563;DHT22;21665;40.108;18.302;2022-07-21T11:24:25;34.70;92.90
35563;DHT22;21665;40.108;18.302;2022-07-21T11:29:25;34.60;93.20
35563;DHT22;21665;40.108;18.302;2022-07-21T11:31:53;34.70;93.30
35563;DHT22;21665;40.108;18.302;2022-07-21T11:34:20;34.80;93.50
35563;DHT22;21665;40.108;18.302;2022-07-21T11:36:46;35.00;93.90
35563;DHT22;21665;40.108;18.302;2022-07-21T11:39:14;35.20;93.80
35563;DHT22;21665;40.108;18.302;2022-07-21T11:41:44;34.90;94.30
35563;DHT22;21665;40.108;18.302;2022-07-21T11:44:11;35.10;94.10
35563;DHT22;21665;40.108;18.302;2022-07-21T11:46:54;35.00;95.00
35563;DHT22;21665;40.108;18.302;2022-07-21T11:49:24;34.80;94.90
35563;DHT22;21665;40.108;18.302;2022-07-21T11:51:56;34.60;95.30
35563;DHT22;21665;40.108;18.302;2022-07-21T11:54:31;34.60;95.40
35563;DHT22;21665;40.108;18.302;2022-07-21T11:57:00;34.60;94.70
35563;DHT22;21665;40.108;18.302;2022-07-21T11:59:28;34.60;95.00
35563;DHT22;21665;40.108;18.302;2022-07-21T12:02:00;35.00;94.50
35563;DHT22;21665;40.108;18.302;2022-07-21T12:04:35;35.00;94.90
35563;DHT22;21665;40.108;18.302;2022-07-21T12:07:06;34.90;94.60
35563;DHT22;21665;40.108;18.302;2022-07-21T12:09:33;35.20;94.50
35563;DHT22;21665;40.108;18.302;2022-07-21T12:12:04;35.10;94.80
35563;DHT22;21665;40.108;18.302;2022-07-21T12:14:48;34.80;92.80
35563;DHT22;21665;40.108;18.302;2022-07-21T12:20:36;34.70;93.80
35563;DHT22;21665;40.108;18.302;2022-07-21T12:25:50;34.40;93.70
35563;DHT22;21665;40.108;18.302;2022-07-21T12:28:17;34.60;93.60
35563;DHT22;21665;40.108;18.302;2022-07-21T12:30:49;34.60;93.30
35563;DHT22;21665;40.108;18.302;2022-07-21T12:33:27;34.60;93.80
35563;DHT22;21665;40.108;18.302;2022-07-21T12:36:03;34.80;93.20
35563;DHT22;21665;40.108;18.302;2022-07-21T12:38:55;34.80;94.00
35563;DHT22;21665;40.108;18.302;2022-07-21T12:41:22;34.70;93.40
35563;DHT22;21665;40.108;18.302;2022-07-21T12:43:59;34.90;93.40
35563;DHT22;21665;40.108;18.302;2022-07-21T12:46:34;35.30;93.00
35563;DHT22;21665;40.108;18.302;2022-07-21T12:49:09;35.40;92.70
35563;DHT22;21665;40.108;18.302;2022-07-21T12:51:37;35.10;94.00
35563;DHT22;21665;40.108;18.302;2022-07-21T12:54:04;34.90;93.70
35563;DHT22;21665;40.108;18.302;2022-07-21T12:56:36;34.80;92.80
35563;DHT22;21665;40.108;18.302;2022-07-21T12:59:04;34.60;93.10
35563;DHT22;21665;40.108;18.302;2022-07-21T13:01:33;34.70;92.70
35563;DHT22;21665;40.108;18.302;2022-07-21T13:04:02;34.90;92.80
35563;DHT22;21665;40.108;18.302;2022-07-21T13:06:29;34.80;93.30
35563;DHT22;21665;40.108;18.302;2022-07-21T13:08:55;34.50;93.00
35563;DHT22;21665;40.108;18.302;2022-07-21T13:11:22;34.70;92.60
35563;DHT22;21665;40.108;18.302;2022-07-21T13:13:50;34.90;93.80
35563;DHT22;21665;40.108;18.302;2022-07-21T13:16:18;34.70;94.40
35563;DHT22;21665;40.108;18.302;2022-07-21T13:18:46;34.80;93.10
35563;DHT22;21665;40.108;18.302;2022-07-21T13:21:13;34.70;93.60
35563;DHT22;21665;40.108;18.302;2022-07-21T13:23:42;35.00;93.20
35563;DHT22;21665;40.108;18.302;2022-07-21T13:26:24;35.10;94.00
35563;DHT22;21665;40.108;18.302;2022-07-21T13:28:54;35.20;93.50
35563;DHT22;21665;40.108;18.302;2022-07-21T13:31:23;35.30;93.20
35563;DHT22;21665;40.108;18.302;2022-07-21T13:33:50;34.80;93.10
35563;DHT22;21665;40.108;18.302;2022-07-21T13:36:17;34.80;93.80
35563;DHT22;21665;40.108;18.302;2022-07-21T13:38:44;34.50;93.80
35563;DHT22;21665;40.108;18.302;2022-07-21T13:41:11;34.60;94.00
35563;DHT22;21665;40.108;18.302;2022-07-21T13:43:39;34.70;93.30
35563;DHT22;21665;40.108;18.302;2022-07-21T13:46:07;34.70;93.80
35563;DHT22;21665;40.108;18.302;2022-07-21T13:48:48;34.60;93.90
35563;DHT22;21665;40.108;18.302;2022-07-21T13:51:16;34.50;94.00
35563;DHT22;21665;40.108;18.302;2022-07-21T13:53:48;34.60;93.90
35563;DHT22;21665;40.108;18.302;2022-07-21T13:56:16;34.70;93.70
35563;DHT22;21665;40.108;18.302;2022-07-21T13:58:44;34.60;93.80
35563;DHT22;21665;40.108;18.302;2022-07-21T14:01:24;34.60;94.00
35563;DHT22;21665;40.108;18.302;2022-07-21T14:03:52;34.70;92.80
35563;DHT22;21665;40.108;18.302;2022-07-21T14:06:22;34.60;93.00
35563;DHT22;21665;40.108;18.302;2022-07-21T14:08:49;34.50;92.80
35563;DHT22;21665;40.108;18.302;2022-07-21T14:11:19;34.30;93.60
35563;DHT22;21665;40.108;18.302;2022-07-21T14:13:49;34.40;93.60
35563;DHT22;21665;40.108;18.302;2022-07-21T14:16:19;34.40;92.20
35563;DHT22;21665;40.108;18.302;2022-07-21T14:18:46;34.40;92.00
35563;DHT22;21665;40.108;18.302;2022-07-21T14:21:13;34.50;92.50
35563;DHT22;21665;40.108;18.302;2022-07-21T14:23:40;34.40;92.40
35563;DHT22;21665;40.108;18.302;2022-07-21T14:26:07;34.40;92.70
35563;DHT22;21665;40.108;18.302;2022-07-21T14:28:43;34.50;92.60
35563;DHT22;21665;40.108;18.302;2022-07-21T14:31:09;34.30;92.90
35563;DHT22;21665;40.108;18.302;2022-07-21T14:33:37;34.30;93.00
35563;DHT22;21665;40.108;18.302;2022-07-21T14:36:05;34.30;93.20
35563;DHT22;21665;40.108;18.302;2022-07-21T14:38:32;34.40;93.20
35563;DHT22;21665;40.108;18.302;2022-07-21T14:41:18;34.30;93.30
35563;DHT22;21665;40.108;18.302;2022-07-21T14:43:50;34.40;93.60
35563;DHT22;21665;40.108;18.302;2022-07-21T14:46:20;34.20;94.00
35563;DHT22;21665;40.108;18.302;2022-07-21T14:48:59;34.10;93.60
35563;DHT22;21665;40.108;18.302;2022-07-21T14:51:26;34.20;93.30
35563;DHT22;21665;40.108;18.302;2022-07-21T14:53:53;34.10;93.40
35563;DHT22;21665;40.108;18.302;2022-07-21T14:56:20;34.30;92.90
35563;DHT22;21665;40.108;18.302;2022-07-21T14:58:46;34.30;92.70
35563;DHT22;21665;40.108;18.302;2022-07-21T15:01:31;34.10;92.80
35563;DHT22;21665;40.108;18.302;2022-07-21T15:03:58;33.90;93.00
35563;DHT22;21665;40.108;18.302;2022-07-21T15:06:25;34.10;92.80
35563;DHT22;21665;40.108;18.302;2022-07-21T15:08:51;34.10;93.00
35563;DHT22;21665;40.108;18.302;2022-07-21T15:11:18;34.10;92.40
35563;DHT22;21665;40.108;18.302;2022-07-21T15:13:48;33.90;92.80
35563;DHT22;21665;40.108;18.302;2022-07-21T15:16:17;33.70;93.20
35563;DHT22;21665;40.108;18.302;2022-07-21T15:18:44;33.80;92.90
35563;DHT22;21665;40.108;18.302;2022-07-21T15:21:11;33.80;93.80
35563;DHT22;21665;40.108;18.302;2022-07-21T15:23:38;33.70;93.70
35563;DHT22;21665;40.108;18.302;2022-07-21T15:26:08;33.90;93.60
35563;DHT22;21665;40.108;18.302;2022-07-21T15:28:46;34.00;93.40
35563;DHT22;21665;40.108;18.302;2022-07-21T15:31:14;34.00;93.20
35563;DHT22;21665;40.108;18.302;2022-07-21T15:33:41;33.80;93.70
35563;DHT22;21665;40.108;18.302;2022-07-21T15:36:08;33.60;94.50
35563;DHT22;21665;40.108;18.302;2022-07-21T15:38:37;33.50;94.20
35563;DHT22;21665;40.108;18.302;2022-07-21T15:41:04;33.70;94.40
35563;DHT22;21665;40.108;18.302;2022-07-21T15:43:31;33.80;94.70
35563;DHT22;21665;40.108;18.302;2022-07-21T15:46:00;33.80;95.00
35563;DHT22;21665;40.108;18.302;2022-07-21T15:48:33;33.80;94.80
35563;DHT22;21665;40.108;18.302;2022-07-21T15:51:09;33.50;94.30
35563;DHT22;21665;40.108;18.302;2022-07-21T15:53:35;33.30;95.10
35563;DHT22;21665;40.108;18.302;2022-07-21T15:56:03;33.30;94.50
35563;DHT22;21665;40.108;18.302;2022-07-21T15:58:31;33.30;94.80
35563;DHT22;21665;40.108;18.302;2022-07-21T16:01:03;33.40;93.80
35563;DHT22;21665;40.108;18.302;2022-07-21T16:03:30;33.40;93.90
35563;DHT22;21665;40.108;18.302;2022-07-21T16:06:06;33.30;94.00
35563;DHT22;21665;40.108;18.302;2022-07-21T16:08:32;33.40;94.10
35563;DHT22;21665;40.108;18.302;2022-07-21T16:10:59;33.40;94.50
35563;DHT22;21665;40.108;18.302;2022-07-21T16:13:26;33.20;94.60
35563;DHT22;21665;40.108;18.302;2022-07-21T16:15:52;33.10;94.90
35563;DHT22;21665;40.108;18.302;2022-07-21T16:18:19;33.10;94.70
35563;DHT22;21665;40.108;18.302;2022-07-21T16:20:48;33.10;94.80
35563;DHT22;21665;40.108;18.302;2022-07-21T16:23:16;33.10;95.10
35563;DHT22;21665;40.108;18.302;2022-07-21T16:25:43;33.10;95.00
35563;DHT22;21665;40.108;18.302;2022-07-21T16:28:09;33.00;95.60
35563;DHT22;21665;40.108;18.302;2022-07-21T16:30:36;32.80;95.60
35563;DHT22;21665;40.108;18.302;2022-07-21T16:33:03;32.70;96.10
35563;DHT22;21665;40.108;18.302;2022-07-21T16:35:29;32.70;96.10
35563;DHT22;21665;40.108;18.302;2022-07-21T16:37:56;32.80;96.30
35563;DHT22;21665;40.108;18.302;2022-07-21T16:40:26;32.70;96.10
35563;DHT22;21665;40.108;18.302;2022-07-21T16:42:55;32.60;96.20